createdAt,value
2019-05-09T00:00:33.570Z,861.24
2019-05-09T00:01:33.579Z,861.24
2019-05-09T00:02:33.677Z,861.19
2019-05-09T00:03:33.535Z,861.17
2019-05-09T00:04:33.484Z,861.11
2019-05-09T00:05:33.472Z,861.08
2019-05-09T00:06:34.002Z,861.08
2019-05-09T00:07:33.728Z,861.10
2019-05-09T00:08:33.536Z,861.06
2019-05-09T00:09:33.554Z,861.07
2019-05-09T00:10:39.386Z,861.09
2019-05-09T00:11:33.594Z,861.03
2019-05-09T00:12:33.582Z,861.00
2019-05-09T00:13:34.146Z,861.01
2019-05-09T00:14:34.200Z,860.98
2019-05-09T00:15:33.254Z,860.94
2019-05-09T00:16:33.511Z,860.87
2019-05-09T00:17:33.755Z,860.89
2019-05-09T00:18:33.608Z,860.93
2019-05-09T00:19:33.369Z,860.87
2019-05-09T00:20:33.186Z,860.85
2019-05-09T00:21:33.267Z,860.86
2019-05-09T00:22:33.249Z,860.84
2019-05-09T00:23:33.215Z,860.81
2019-05-09T00:24:33.187Z,860.76
2019-05-09T00:25:34.008Z,860.81
2019-05-09T00:26:33.900Z,860.80
2019-05-09T00:27:33.231Z,860.79
2019-05-09T00:28:33.828Z,860.80
2019-05-09T00:29:33.481Z,860.78
2019-05-09T00:30:33.229Z,860.78
2019-05-09T00:31:33.779Z,860.71
2019-05-09T00:32:34.063Z,860.74
2019-05-09T00:33:34.333Z,860.74
2019-05-09T00:34:33.792Z,860.70
2019-05-09T00:35:33.852Z,860.71
2019-05-09T00:36:33.456Z,860.71
2019-05-09T00:37:33.047Z,860.69
2019-05-09T00:38:33.342Z,860.65
2019-05-09T00:39:34.065Z,860.63
2019-05-09T00:40:34.142Z,860.62
2019-05-09T00:41:33.071Z,860.57
2019-05-09T00:42:33.369Z,860.52
2019-05-09T00:43:34.221Z,860.52
2019-05-09T00:44:33.887Z,860.48
2019-05-09T00:45:33.312Z,860.46
2019-05-09T00:46:34.053Z,860.47
2019-05-09T00:47:32.982Z,860.43
2019-05-09T00:48:33.689Z,860.46
2019-05-09T00:49:34.143Z,860.47
2019-05-09T00:50:33.990Z,860.44
2019-05-09T00:51:33.904Z,860.42
2019-05-09T00:52:33.934Z,860.45
2019-05-09T00:53:33.882Z,860.41
2019-05-09T00:54:33.491Z,860.41
2019-05-09T00:55:33.237Z,860.45
2019-05-09T00:56:33.127Z,860.41
2019-05-09T00:57:33.484Z,860.42
2019-05-09T00:58:33.401Z,860.42
2019-05-09T00:59:33.289Z,860.40
2019-05-09T01:00:33.357Z,860.35
2019-05-09T01:01:34.080Z,860.32
2019-05-09T01:02:34.046Z,860.36
2019-05-09T01:03:33.996Z,860.34
2019-05-09T01:04:33.329Z,860.31
2019-05-09T01:05:34.090Z,860.34
2019-05-09T01:06:34.056Z,860.31
2019-05-09T01:07:33.680Z,860.28
2019-05-09T01:08:33.487Z,860.26
2019-05-09T01:09:33.375Z,860.28
2019-05-09T01:10:34.118Z,860.28
2019-05-09T01:11:33.290Z,860.22
2019-05-09T01:12:34.111Z,860.20
2019-05-09T01:13:34.082Z,860.21
2019-05-09T01:14:33.924Z,860.18
2019-05-09T01:15:33.410Z,860.17
2019-05-09T01:16:33.474Z,860.18
2019-05-09T01:17:33.512Z,860.12
2019-05-09T01:18:33.144Z,860.13
2019-05-09T01:19:33.874Z,860.15
2019-05-09T01:20:33.335Z,860.15
2019-05-09T01:21:33.327Z,860.14
2019-05-09T01:22:33.109Z,860.17
2019-05-09T01:23:34.042Z,860.18
2019-05-09T01:24:33.751Z,860.14
2019-05-09T01:25:33.501Z,860.13
2019-05-09T01:26:33.387Z,860.11
2019-05-09T01:29:04.381Z,860.10
2019-05-09T01:30:04.514Z,860.14
2019-05-09T01:31:55.451Z,860.11
2019-05-09T01:32:55.340Z,860.15
2019-05-09T01:34:47.824Z,860.12
2019-05-09T01:35:47.625Z,860.15
2019-05-09T01:37:39.990Z,860.05
2019-05-09T01:38:39.955Z,860.10
2019-05-09T01:40:33.205Z,860.04
2019-05-09T01:41:34.084Z,860.06
2019-05-09T01:43:24.673Z,860.03
2019-05-09T01:44:24.672Z,860.06
2019-05-09T01:46:17.317Z,859.99
2019-05-09T01:47:17.026Z,860.00
2019-05-09T01:49:09.955Z,860.02
2019-05-09T01:50:09.322Z,860.01
2019-05-09T01:52:03.384Z,859.93
2019-05-09T01:53:03.857Z,859.91
2019-05-09T01:54:54.176Z,859.86
2019-05-09T01:55:54.042Z,859.87
2019-05-09T01:57:47.988Z,859.86
2019-05-09T01:58:46.337Z,859.88
2019-05-09T02:00:38.707Z,859.86
2019-05-09T02:01:38.707Z,859.75
2019-05-09T02:05:03.993Z,859.81
2019-05-09T02:06:03.547Z,859.82
2019-05-09T02:07:54.274Z,859.76
2019-05-09T02:08:54.654Z,859.76
2019-05-09T02:10:46.391Z,859.72
2019-05-09T02:11:46.296Z,859.74
2019-05-09T02:13:38.715Z,859.69
2019-05-09T02:14:38.618Z,859.71
2019-05-09T02:16:31.162Z,859.66
2019-05-09T02:17:30.947Z,859.69
2019-05-09T02:19:24.158Z,859.69
2019-05-09T02:20:24.244Z,859.64
2019-05-09T02:22:16.467Z,859.59
2019-05-09T02:23:16.210Z,859.57
2019-05-09T02:25:08.568Z,859.64
2019-05-09T02:26:08.560Z,859.53
2019-05-09T02:28:03.350Z,859.53
2019-05-09T02:29:03.081Z,859.53
2019-05-09T02:32:24.284Z,859.54
2019-05-09T02:33:25.080Z,859.49
2019-05-09T02:35:16.916Z,859.43
2019-05-09T02:36:18.945Z,859.33
2019-05-09T02:37:18.679Z,859.34
2019-05-09T02:38:19.729Z,859.34
2019-05-09T02:39:18.891Z,859.36
2019-05-09T02:40:18.748Z,859.34
2019-05-09T02:41:19.494Z,859.27
2019-05-09T02:42:19.582Z,859.29
2019-05-09T02:43:18.736Z,859.30
2019-05-09T02:44:19.312Z,859.33
2019-05-09T02:45:19.175Z,859.31
2019-05-09T02:46:18.793Z,859.24
2019-05-09T02:47:18.012Z,859.22
2019-05-09T02:48:18.619Z,859.18
2019-05-09T02:49:18.925Z,859.12
2019-05-09T02:50:19.530Z,859.07
2019-05-09T02:51:18.545Z,858.99
2019-05-09T02:52:19.442Z,859.02
2019-05-09T02:53:18.979Z,859.01
2019-05-09T02:54:19.162Z,859.06
2019-05-09T02:55:18.456Z,859.09
2019-05-09T02:56:18.832Z,859.08
2019-05-09T02:57:18.528Z,859.05
2019-05-09T02:58:20.385Z,859.03
2019-05-09T02:59:18.906Z,858.99
2019-05-09T03:00:19.686Z,859.06
2019-05-09T03:01:18.943Z,859.08
2019-05-09T03:02:19.269Z,859.07
2019-05-09T03:03:19.537Z,859.01
2019-05-09T03:04:18.878Z,859.05
2019-05-09T03:05:19.232Z,859.06
2019-05-09T03:06:19.261Z,859.00
2019-05-09T03:07:18.885Z,858.95
2019-05-09T03:08:18.996Z,858.90
2019-05-09T03:09:19.020Z,858.97
2019-05-09T03:10:19.119Z,858.89
2019-05-09T03:11:18.684Z,858.92
2019-05-09T03:12:26.777Z,858.91
2019-05-09T03:13:19.071Z,858.87
2019-05-09T03:14:19.244Z,858.92
2019-05-09T03:15:18.561Z,858.86
2019-05-09T03:16:19.052Z,858.85
2019-05-09T03:17:18.436Z,858.85
2019-05-09T03:18:18.374Z,858.89
2019-05-09T03:19:19.110Z,858.81
2019-05-09T03:20:18.221Z,858.81
2019-05-09T03:21:19.017Z,858.78
2019-05-09T03:22:18.685Z,858.67
2019-05-09T03:23:18.875Z,858.70
2019-05-09T03:24:18.464Z,858.72
2019-05-09T03:25:19.006Z,858.80
2019-05-09T03:26:19.213Z,858.70
2019-05-09T03:27:18.709Z,858.73
2019-05-09T03:28:18.435Z,858.66
2019-05-09T03:29:18.814Z,858.73
2019-05-09T03:30:20.406Z,858.72
2019-05-09T03:31:19.489Z,858.75
2019-05-09T03:32:19.092Z,858.68
2019-05-09T03:33:19.838Z,858.61
2019-05-09T03:34:19.268Z,858.65
2019-05-09T03:35:17.273Z,858.55
2019-05-09T03:36:18.020Z,858.57
2019-05-09T03:37:17.648Z,858.56
2019-05-09T03:38:17.825Z,858.58
2019-05-09T03:39:18.365Z,858.53
2019-05-09T03:40:17.958Z,858.52
2019-05-09T03:41:17.718Z,858.49
2019-05-09T03:42:20.653Z,858.49
2019-05-09T03:43:18.176Z,858.38
2019-05-09T03:44:17.843Z,858.37
2019-05-09T03:45:18.089Z,858.47
2019-05-09T03:46:18.040Z,858.38
2019-05-09T03:47:17.329Z,858.30
2019-05-09T03:48:17.943Z,858.35
2019-05-09T03:49:17.909Z,858.31
2019-05-09T03:50:17.752Z,858.31
2019-05-09T03:51:18.217Z,858.27
2019-05-09T03:52:17.753Z,858.28
2019-05-09T03:53:18.299Z,858.25
2019-05-09T03:54:18.170Z,858.26
2019-05-09T03:55:17.919Z,858.23
2019-05-09T03:56:18.027Z,858.27
2019-05-09T03:57:17.897Z,858.20
2019-05-09T03:58:18.293Z,858.16
2019-05-09T03:59:17.636Z,858.16
2019-05-09T04:00:17.948Z,858.16
2019-05-09T04:01:17.512Z,858.21
2019-05-09T04:02:17.801Z,858.12
2019-05-09T04:03:19.838Z,858.11
2019-05-09T04:04:17.359Z,858.11
2019-05-09T04:05:17.974Z,858.11
2019-05-09T04:06:18.278Z,858.04
2019-05-09T04:07:15.816Z,858.03
2019-05-09T04:08:17.938Z,858.07
2019-05-09T04:09:17.861Z,858.02
2019-05-09T04:10:17.912Z,857.92
2019-05-09T04:11:15.787Z,858.02
2019-05-09T04:12:17.954Z,858.00
2019-05-09T04:13:18.032Z,858.01
2019-05-09T04:14:17.558Z,857.96
2019-05-09T04:15:18.840Z,857.91
2019-05-09T04:16:17.365Z,857.85
2019-05-09T04:17:18.043Z,857.79
2019-05-09T04:18:17.690Z,857.78
2019-05-09T04:19:17.479Z,857.73
2019-05-09T04:20:17.511Z,857.82
2019-05-09T04:21:17.547Z,857.71
2019-05-09T04:22:18.018Z,857.66
2019-05-09T04:23:15.689Z,857.67
2019-05-09T04:24:17.582Z,857.72
2019-05-09T04:25:17.966Z,857.85
2019-05-09T04:26:17.508Z,857.72
2019-05-09T04:27:17.700Z,857.68
2019-05-09T04:28:17.640Z,857.68
2019-05-09T04:29:15.614Z,857.60
2019-05-09T04:30:15.604Z,857.64
2019-05-09T04:31:17.710Z,857.63
2019-05-09T04:32:15.597Z,857.56
2019-05-09T04:33:17.597Z,857.51
2019-05-09T04:34:15.603Z,857.57
2019-05-09T04:35:17.445Z,857.47
2019-05-09T04:36:15.572Z,857.43
2019-05-09T04:37:17.866Z,857.53
2019-05-09T04:38:17.753Z,857.51
2019-05-09T04:39:18.945Z,857.49
2019-05-09T04:40:17.671Z,857.34
2019-05-09T04:41:16.307Z,857.48
2019-05-09T04:42:15.505Z,857.38
2019-05-09T04:43:18.749Z,857.38
2019-05-09T04:44:19.303Z,857.29
2019-05-09T04:45:17.246Z,857.29
2019-05-09T04:46:20.736Z,857.36
2019-05-09T04:47:17.370Z,857.28
2019-05-09T04:48:20.258Z,857.26
2019-05-09T04:49:15.454Z,857.23
2019-05-09T04:50:23.104Z,857.30
2019-05-09T04:51:15.456Z,857.28
2019-05-09T04:52:15.434Z,857.26
2019-05-09T04:53:15.419Z,857.31
2019-05-09T04:54:17.581Z,857.23
2019-05-09T04:55:15.374Z,857.19
2019-05-09T04:56:17.412Z,857.20
2019-05-09T04:57:17.696Z,857.16
2019-05-09T04:58:15.369Z,857.28
2019-05-09T04:59:17.679Z,857.20
2019-05-09T05:00:15.353Z,857.21
2019-05-09T05:01:19.609Z,857.25
2019-05-09T05:02:15.308Z,857.21
2019-05-09T05:03:15.319Z,857.20
2019-05-09T05:04:15.294Z,857.15
2019-05-09T05:05:15.291Z,857.14
2019-05-09T05:06:18.171Z,857.17
2019-05-09T05:07:15.291Z,857.14
2019-05-09T05:08:15.287Z,857.10
2019-05-09T05:09:15.277Z,857.30
2019-05-09T05:10:15.255Z,857.19
2019-05-09T05:11:15.245Z,857.17
2019-05-09T05:12:15.228Z,857.16
2019-05-09T05:13:25.644Z,857.02
2019-05-09T05:14:15.199Z,857.00
2019-05-09T05:15:15.213Z,857.08
2019-05-09T05:16:15.213Z,856.96
2019-05-09T05:17:15.191Z,856.99
2019-05-09T05:18:17.452Z,856.97
2019-05-09T05:19:15.167Z,856.95
2019-05-09T05:20:15.164Z,856.90
2019-05-09T05:21:15.150Z,856.90
2019-05-09T05:22:15.136Z,856.83
2019-05-09T05:23:15.150Z,856.88
2019-05-09T05:24:15.125Z,856.74
2019-05-09T05:25:17.722Z,856.82
2019-05-09T05:26:15.110Z,856.83
2019-05-09T05:27:15.100Z,856.79
2019-05-09T05:28:15.078Z,856.85
2019-05-09T05:29:15.059Z,856.76
2019-05-09T05:30:15.056Z,856.70
2019-05-09T05:31:15.042Z,856.76
2019-05-09T05:32:15.044Z,856.70
2019-05-09T05:33:15.036Z,856.61
2019-05-09T05:34:15.059Z,856.75
2019-05-09T05:35:15.019Z,856.63
2019-05-09T05:36:15.018Z,856.58
2019-05-09T05:37:15.007Z,856.55
2019-05-09T05:38:16.998Z,856.59
2019-05-09T05:39:14.991Z,856.54
2019-05-09T05:40:14.985Z,856.62
2019-05-09T05:41:14.981Z,856.64
2019-05-09T05:42:17.512Z,856.66
2019-05-09T05:43:17.280Z,856.57
2019-05-09T05:44:14.926Z,856.55
2019-05-09T05:45:14.934Z,856.60
2019-05-09T05:46:14.917Z,856.56
2019-05-09T05:47:14.912Z,856.56
2019-05-09T05:48:17.370Z,856.52
2019-05-09T05:49:14.903Z,856.43
2019-05-09T05:50:14.906Z,856.52
2019-05-09T05:51:14.868Z,856.53
2019-05-09T05:52:14.871Z,856.49
2019-05-09T05:53:14.860Z,856.53
2019-05-09T05:54:14.829Z,856.44
2019-05-09T05:55:14.840Z,856.43
2019-05-09T05:56:14.814Z,856.36
2019-05-09T05:57:14.827Z,856.39
2019-05-09T05:58:14.818Z,856.49
2019-05-09T05:59:14.805Z,856.45
2019-05-09T06:00:14.791Z,856.39
2019-05-09T06:01:14.788Z,856.44
2019-05-09T06:02:14.783Z,856.54
2019-05-09T06:03:14.806Z,856.62
2019-05-09T06:04:14.768Z,856.43
2019-05-09T06:05:14.731Z,856.52
2019-05-09T06:06:14.788Z,856.48
2019-05-09T06:07:14.738Z,856.46
2019-05-09T06:08:14.735Z,856.29
2019-05-09T06:09:14.691Z,856.41
2019-05-09T06:10:14.724Z,856.46
2019-05-09T06:11:14.696Z,856.38
2019-05-09T06:12:14.674Z,856.41
2019-05-09T06:13:14.680Z,856.35
2019-05-09T06:14:14.678Z,856.38
2019-05-09T06:15:14.655Z,856.31
2019-05-09T06:16:14.632Z,856.33
2019-05-09T06:17:14.644Z,856.36
2019-05-09T06:18:14.614Z,856.36
2019-05-09T06:19:14.618Z,856.36
2019-05-09T06:20:17.572Z,856.27
2019-05-09T06:21:14.594Z,856.41
2019-05-09T06:22:14.588Z,856.40
2019-05-09T06:23:14.576Z,856.43
2019-05-09T06:24:14.557Z,856.41
2019-05-09T06:25:14.546Z,856.32
2019-05-09T06:26:14.549Z,856.38
2019-05-09T06:27:14.535Z,856.32
2019-05-09T06:28:14.542Z,856.31
2019-05-09T06:29:14.546Z,856.31
2019-05-09T06:30:14.527Z,856.30
2019-05-09T06:31:14.533Z,856.25
2019-05-09T06:32:14.501Z,856.26
2019-05-09T06:33:14.473Z,856.22
2019-05-09T06:34:14.495Z,856.18
2019-05-09T06:35:14.493Z,856.23
2019-05-09T06:36:14.483Z,856.19
2019-05-09T06:37:14.475Z,856.11
2019-05-09T06:38:14.446Z,856.06
2019-05-09T06:39:14.451Z,856.19
2019-05-09T06:40:14.433Z,856.14
2019-05-09T06:41:14.754Z,856.00
2019-05-09T06:42:14.845Z,856.15
2019-05-09T06:43:14.503Z,856.02
2019-05-09T06:44:19.616Z,855.98
2019-05-09T06:45:14.450Z,856.00
2019-05-09T10:37:52.752Z,854.51
2019-05-09T10:38:52.463Z,854.52
2019-05-09T10:42:18.807Z,854.44
2019-05-09T10:43:34.048Z,854.38
2019-05-09T10:45:11.475Z,854.40
2019-05-09T10:46:15.190Z,854.45
2019-05-09T10:48:04.599Z,854.42
2019-05-09T10:49:04.583Z,854.41
2019-05-09T10:51:04.656Z,854.35
2019-05-09T10:51:58.181Z,854.37
2019-05-09T10:53:51.256Z,854.31
2019-05-09T10:54:51.257Z,854.29
2019-05-09T10:56:44.699Z,854.30
2019-05-09T10:57:44.606Z,854.31
2019-05-09T10:59:37.953Z,854.27
2019-05-09T11:00:39.370Z,854.22
2019-05-09T11:02:31.685Z,854.28
2019-05-09T11:03:31.276Z,854.24
2019-05-09T11:05:24.677Z,854.19
2019-05-09T11:06:24.651Z,854.26
2019-05-09T11:08:18.686Z,854.23
2019-05-09T11:09:18.389Z,854.22
2019-05-09T11:11:11.352Z,854.21
2019-05-09T11:12:11.356Z,854.20
2019-05-09T11:14:04.804Z,854.18
2019-05-09T11:15:04.674Z,854.20
2019-05-09T11:17:07.880Z,854.20
2019-05-09T11:17:58.038Z,854.17
2019-05-09T11:19:52.578Z,854.13
2019-05-09T11:20:52.347Z,854.18
2019-05-09T11:22:45.705Z,854.18
2019-05-09T11:23:45.702Z,854.17
2019-05-09T11:25:39.257Z,854.13
2019-05-09T11:26:39.959Z,854.15
2019-05-09T11:28:32.407Z,854.09
2019-05-09T11:29:32.399Z,854.08
2019-05-09T11:31:25.467Z,854.11
2019-05-09T11:32:27.470Z,854.07
2019-05-09T11:34:18.984Z,854.09
2019-05-09T11:35:21.332Z,854.14
2019-05-09T11:37:12.035Z,854.13
2019-05-09T11:38:12.008Z,854.07
2019-05-09T11:40:05.309Z,854.14
2019-05-09T11:41:05.270Z,854.15
2019-05-09T11:42:58.831Z,854.20
2019-05-09T11:43:59.526Z,854.14
2019-05-09T11:45:51.942Z,854.15
2019-05-09T11:46:51.941Z,854.13
2019-05-09T11:48:45.384Z,854.13
2019-05-09T11:49:47.914Z,854.09
2019-05-09T11:51:38.663Z,854.06
2019-05-09T11:52:38.617Z,854.05
2019-05-09T11:54:32.201Z,854.07
2019-05-09T11:55:36.628Z,854.07
2019-05-09T11:57:27.545Z,854.05
2019-05-09T11:58:25.307Z,854.04
2019-05-09T12:00:18.780Z,854.07
2019-05-09T12:01:19.175Z,854.05
2019-05-09T12:03:12.025Z,854.07
2019-05-09T12:04:12.015Z,854.04
2019-05-09T12:06:07.814Z,854.03
2019-05-09T12:07:07.771Z,854.00
2019-05-09T12:08:58.803Z,853.98
2019-05-09T12:09:58.973Z,853.99
2019-05-09T12:11:51.801Z,854.00
2019-05-09T12:12:51.567Z,853.99
2019-05-09T12:14:44.899Z,854.05
2019-05-09T12:15:44.896Z,854.01
2019-05-09T12:17:51.058Z,854.04
2019-05-09T12:18:38.237Z,854.08
2019-05-09T12:20:31.673Z,854.06
2019-05-09T12:21:31.562Z,854.07
2019-05-09T12:23:25.133Z,854.05
2019-05-09T12:24:24.899Z,854.09
2019-05-09T12:26:18.274Z,854.07
2019-05-09T12:27:18.896Z,854.07
2019-05-09T12:29:11.808Z,854.21
2019-05-09T12:30:11.594Z,854.30
2019-05-09T12:32:04.942Z,854.30
2019-05-09T12:33:04.924Z,854.33
2019-05-09T12:34:58.506Z,854.44
2019-05-09T12:36:00.097Z,854.42
2019-05-09T12:37:51.659Z,854.53
2019-05-09T12:38:51.752Z,854.55
2019-05-09T12:40:45.212Z,854.67
2019-05-09T12:41:44.972Z,854.72
2019-05-09T12:43:38.358Z,854.71
2019-05-09T12:44:38.314Z,854.77
2019-05-09T12:46:31.933Z,854.73
2019-05-09T12:47:31.693Z,854.78
2019-05-09T12:49:28.158Z,854.90
2019-05-09T12:50:29.280Z,854.94
2019-05-09T12:52:20.567Z,855.00
2019-05-09T12:53:20.340Z,855.04
2019-05-09T12:55:13.703Z,855.12
2019-05-09T12:58:01.476Z,855.18
2019-05-09T12:59:01.196Z,855.24
2019-05-09T13:00:54.565Z,855.25
2019-05-09T13:01:54.551Z,855.29
2019-05-09T13:03:48.553Z,855.38
2019-05-09T13:04:47.933Z,855.45
2019-05-09T13:06:42.322Z,855.63
2019-05-09T13:07:42.553Z,855.67
2019-05-09T13:09:35.828Z,855.74
2019-05-09T13:10:37.758Z,855.91
2019-05-09T13:11:35.556Z,855.85
2019-05-09T13:12:38.708Z,855.88
2019-05-09T13:13:35.565Z,855.96
2019-05-09T13:14:37.844Z,855.95
2019-05-09T13:15:38.252Z,855.98
2019-05-09T13:16:47.537Z,856.02
2019-05-09T13:17:35.515Z,855.93
2019-05-09T13:18:37.487Z,855.94
2019-05-09T13:19:37.974Z,855.97
2019-05-09T13:20:38.107Z,855.94
2019-05-09T13:21:38.373Z,855.95
2019-05-09T13:22:35.458Z,855.93
2019-05-09T13:23:35.477Z,855.95
2019-05-09T13:24:37.729Z,855.98
2019-05-09T13:25:37.951Z,856.05
2019-05-09T13:26:38.257Z,856.13
2019-05-09T13:27:35.404Z,856.14
2019-05-09T13:28:37.668Z,856.24
2019-05-09T13:29:37.835Z,856.34
2019-05-09T13:30:37.778Z,856.38
2019-05-09T13:31:37.990Z,856.42
2019-05-09T13:32:37.443Z,856.44
2019-05-09T13:33:38.159Z,856.47
2019-05-09T13:34:37.827Z,856.56
2019-05-09T13:35:35.326Z,856.55
2019-05-09T13:36:35.320Z,856.60
2019-05-09T13:37:38.030Z,856.57
2019-05-09T13:38:37.680Z,856.51
2019-05-09T13:39:35.298Z,856.46
2019-05-09T13:40:35.264Z,856.44
2019-05-09T13:41:37.490Z,856.48
2019-05-09T13:42:35.271Z,856.42
2019-05-09T13:43:35.274Z,856.47
2019-05-09T13:44:39.020Z,856.45
2019-05-09T13:45:35.231Z,856.45
2019-05-09T13:46:35.217Z,856.39
2019-05-09T13:47:35.201Z,856.41
2019-05-09T13:48:57.100Z,856.41
2019-05-09T13:49:35.167Z,856.37
2019-05-09T13:50:35.168Z,856.38
2019-05-09T13:51:35.581Z,856.35
2019-05-09T13:52:35.137Z,856.39
2019-05-09T13:53:35.131Z,856.38
2019-05-09T13:54:35.138Z,856.45
2019-05-09T13:55:35.125Z,856.46
2019-05-09T13:56:35.110Z,856.47
2019-05-09T13:57:35.094Z,856.50
2019-05-09T13:58:35.089Z,856.53
2019-05-09T13:59:37.286Z,856.53
2019-05-09T14:00:35.056Z,856.49
2019-05-09T14:01:35.052Z,856.50
2019-05-09T14:02:35.094Z,856.51
2019-05-09T14:03:35.024Z,856.48
2019-05-09T14:04:35.021Z,856.55
2019-05-09T14:05:35.037Z,856.59
2019-05-09T14:06:35.009Z,856.56
2019-05-09T14:07:37.507Z,856.51
2019-05-09T14:08:34.978Z,856.52
2019-05-09T14:09:34.961Z,856.55
2019-05-09T14:10:34.981Z,856.52
2019-05-09T14:11:34.947Z,856.52
2019-05-09T14:12:34.923Z,856.55
2019-05-09T14:13:34.930Z,856.59
2019-05-09T14:14:34.904Z,856.61
2019-05-09T14:15:34.913Z,856.61
2019-05-09T14:16:34.900Z,856.62
2019-05-09T14:17:48.182Z,856.55
2019-05-09T14:18:34.872Z,856.62
2019-05-09T14:19:44.397Z,856.68
2019-05-09T14:20:34.851Z,856.75
2019-05-09T14:21:34.871Z,856.77
2019-05-09T14:22:34.858Z,856.76
2019-05-09T14:23:37.133Z,856.76
2019-05-09T14:24:34.809Z,856.76
2019-05-09T14:25:34.786Z,856.76
2019-05-09T14:26:34.775Z,856.73
2019-05-09T14:27:34.782Z,856.71
2019-05-09T14:28:34.764Z,856.69
2019-05-09T14:29:34.745Z,856.67
2019-05-09T14:30:34.746Z,856.65
2019-05-09T14:31:34.873Z,856.69
2019-05-09T14:32:35.113Z,856.71
2019-05-09T14:33:34.719Z,856.72
2019-05-09T14:34:34.730Z,856.74
2019-05-09T14:35:34.689Z,856.80
2019-05-09T14:36:34.680Z,856.83
2019-05-09T14:37:34.678Z,856.89
2019-05-09T14:38:34.646Z,856.87
2019-05-09T14:39:34.638Z,856.88
2019-05-09T14:40:34.637Z,856.92
2019-05-09T14:41:34.629Z,856.90
2019-05-09T14:42:34.622Z,856.92
2019-05-09T14:43:34.611Z,856.95
2019-05-09T14:44:34.600Z,857.00
2019-05-09T14:45:34.566Z,857.02
2019-05-09T14:46:34.554Z,857.05
2019-05-09T14:47:38.577Z,857.11
2019-05-09T14:48:34.554Z,857.08
2019-05-09T14:49:43.446Z,857.09
2019-05-09T14:50:34.520Z,857.13
2019-05-09T14:51:34.503Z,857.12
2019-05-09T14:52:34.517Z,857.16
2019-05-09T14:53:34.492Z,857.20
2019-05-09T14:54:34.497Z,857.24
2019-05-09T14:55:34.485Z,857.25
2019-05-09T14:56:34.464Z,857.27
2019-05-09T14:57:34.458Z,857.27
2019-05-09T14:58:34.439Z,857.28
2019-05-09T14:59:34.435Z,857.28
2019-05-09T15:00:34.412Z,857.29
2019-05-09T15:01:34.405Z,857.23
2019-05-09T15:02:34.396Z,857.20
2019-05-09T15:03:34.370Z,857.31
2019-05-09T15:04:34.361Z,857.31
2019-05-09T15:05:34.369Z,857.32
2019-05-09T15:06:34.360Z,857.38
2019-05-09T15:07:34.329Z,857.41
2019-05-09T15:08:34.334Z,857.42
2019-05-09T15:09:34.306Z,857.48
2019-05-09T15:10:34.317Z,857.51
2019-05-09T15:11:34.282Z,857.60
2019-05-09T15:12:34.294Z,857.60
2019-05-09T15:13:34.272Z,857.59
2019-05-09T15:14:34.272Z,857.61
2019-05-09T15:15:34.252Z,857.55
2019-05-09T15:16:34.234Z,857.58
2019-05-09T15:17:34.215Z,857.60
2019-05-09T15:18:34.226Z,857.60
2019-05-09T15:19:34.218Z,857.58
2019-05-09T15:20:34.199Z,857.56
2019-05-09T15:21:34.196Z,857.58
2019-05-09T15:22:34.164Z,857.61
2019-05-09T15:23:34.173Z,857.69
2019-05-09T15:24:34.135Z,857.72
2019-05-09T15:25:34.157Z,857.76
2019-05-09T15:26:34.118Z,857.81
2019-05-09T15:27:34.113Z,857.91
2019-05-09T15:28:34.112Z,857.97
2019-05-09T15:29:34.103Z,858.03
2019-05-09T15:30:34.097Z,858.02
2019-05-09T15:31:34.070Z,858.07
2019-05-09T15:32:34.047Z,858.17
2019-05-09T15:33:34.037Z,858.17
2019-05-09T15:34:34.047Z,858.22
2019-05-09T15:35:34.015Z,858.26
2019-05-09T15:36:34.009Z,858.34
2019-05-09T15:37:33.994Z,858.46
2019-05-09T15:38:33.988Z,858.41
2019-05-09T15:39:33.986Z,858.41
2019-05-09T15:40:33.963Z,858.38
2019-05-09T15:41:33.950Z,858.46
2019-05-09T15:42:33.949Z,858.52
2019-05-09T15:43:33.929Z,858.55
2019-05-09T15:44:33.928Z,858.52
2019-05-09T15:45:33.911Z,858.52
2019-05-09T15:46:33.916Z,858.52
2019-05-09T15:47:33.887Z,858.49
2019-05-09T15:48:33.891Z,858.48
2019-05-09T15:49:33.858Z,858.43
2019-05-09T15:50:33.863Z,858.38
2019-05-09T15:51:33.830Z,858.40
2019-05-09T15:52:33.836Z,858.34
2019-05-09T15:53:33.824Z,858.36
2019-05-09T15:54:33.799Z,858.38
2019-05-09T15:55:33.793Z,858.40
2019-05-09T15:56:33.795Z,858.35
2019-05-09T15:57:33.774Z,858.42
2019-05-09T15:58:33.751Z,858.47
2019-05-09T15:59:33.748Z,858.45
2019-05-09T16:00:33.733Z,858.44
2019-05-09T16:01:33.737Z,858.40
2019-05-09T16:02:34.053Z,858.38
2019-05-09T16:03:33.710Z,858.25
2019-05-09T16:04:33.714Z,858.19
2019-05-09T16:05:33.690Z,858.16
2019-05-09T16:06:33.662Z,858.08
2019-05-09T16:07:33.661Z,858.10
2019-05-09T16:08:33.658Z,858.14
2019-05-09T16:09:33.634Z,858.13
2019-05-09T16:10:33.636Z,858.16
2019-05-09T16:11:33.616Z,858.18
2019-05-09T16:12:33.594Z,858.22
2019-05-09T16:13:33.592Z,858.23
2019-05-09T16:14:33.578Z,858.29
2019-05-09T16:15:33.572Z,858.25
2019-05-09T16:16:33.558Z,858.30
2019-05-09T16:17:33.539Z,858.30
2019-05-09T16:18:33.545Z,858.35
2019-05-09T16:19:33.531Z,858.33
2019-05-09T16:20:37.617Z,858.35
2019-05-09T16:21:33.508Z,858.34
2019-05-09T16:22:33.493Z,858.34
2019-05-09T16:23:33.477Z,858.28
2019-05-09T16:24:33.455Z,858.30
2019-05-09T16:25:33.467Z,858.28
2019-05-09T16:26:33.458Z,858.19
2019-05-09T16:27:33.424Z,858.23
2019-05-09T16:28:33.425Z,858.27
2019-05-09T16:29:33.420Z,858.25
2019-05-09T16:30:33.392Z,858.28
2019-05-09T16:31:33.413Z,858.26
2019-05-09T16:32:33.368Z,858.30
2019-05-09T16:33:33.370Z,858.29
2019-05-09T16:34:33.336Z,858.29
2019-05-09T16:35:33.326Z,858.28
2019-05-09T16:36:33.334Z,858.29
2019-05-09T16:37:52.885Z,858.27
2019-05-09T16:38:43.454Z,858.19
2019-05-09T16:39:33.291Z,858.17
2019-05-09T16:40:33.274Z,858.13
2019-05-09T16:41:33.274Z,858.12
2019-05-09T16:42:33.259Z,858.14
2019-05-09T16:43:33.232Z,858.15
2019-05-09T16:44:33.235Z,858.19
2019-05-09T16:45:33.615Z,858.19
2019-05-09T16:46:33.217Z,858.26
2019-05-09T16:47:33.202Z,858.26
2019-05-09T16:48:33.182Z,858.28
2019-05-09T16:49:33.168Z,858.22
2019-05-09T16:50:33.166Z,858.22
2019-05-09T16:51:33.149Z,858.20
2019-05-09T16:52:33.134Z,858.24
2019-05-09T16:53:33.117Z,858.31
2019-05-09T16:54:33.102Z,858.35
2019-05-09T16:55:33.097Z,858.40
2019-05-09T16:56:33.101Z,858.40
2019-05-09T16:57:33.073Z,858.41
2019-05-09T16:58:33.073Z,858.42
2019-05-09T16:59:33.071Z,858.43
2019-05-09T17:00:33.056Z,858.47
2019-05-09T17:01:33.035Z,858.46
2019-05-09T17:02:33.050Z,858.48
2019-05-09T17:03:33.017Z,858.47
2019-05-09T17:04:32.991Z,858.48
2019-05-09T17:05:32.997Z,858.50
2019-05-09T17:06:32.963Z,858.58
2019-05-09T17:07:32.949Z,858.57
2019-05-09T17:08:32.946Z,858.62
2019-05-09T17:09:32.923Z,858.67
2019-05-09T17:10:32.938Z,858.72
2019-05-09T17:11:32.915Z,858.72
2019-05-09T17:12:32.891Z,858.75
2019-05-09T17:13:32.891Z,858.68
2019-05-09T17:14:32.891Z,858.65
2019-05-09T17:15:32.878Z,858.64
2019-05-09T17:16:32.856Z,858.62
2019-05-09T17:17:32.841Z,858.64
2019-05-09T17:18:32.843Z,858.60
2019-05-09T17:19:32.821Z,858.62
2019-05-09T17:20:32.808Z,858.61
2019-05-09T17:21:32.793Z,858.65
2019-05-09T17:22:35.573Z,858.66
2019-05-09T17:23:32.776Z,858.71
2019-05-09T17:24:32.765Z,858.73
2019-05-09T17:25:32.740Z,858.77
2019-05-09T17:26:32.761Z,858.78
2019-05-09T17:27:32.739Z,858.81
2019-05-09T17:28:32.714Z,858.79
2019-05-09T17:29:32.703Z,858.76
2019-05-09T17:30:32.682Z,858.73
2019-05-09T17:31:33.311Z,858.72
2019-05-09T17:32:32.658Z,858.73